Accueil
METAR-TAF:

METAR-TAF

Aéroports :

Fairford, Angleterre

latitude: 51-41N, longitude: 001-47W, altitude: 87 m

Observation

Le bulletin a été fait il y a 20 minutes, à 18:56 UTC
Vent 14 kt de sud-ouest avec des rafales jusqu'à 21 kt
Température 13°C
Humidité 88%
Pression 1005 hPa
Visibilité 10 km ou plus
Nuages fragmentés à une hauteur de 1300 ft
Nuages fragmentés à une hauteur de 1900 ft
Ciel couvert à une hauteur de 2500 ft

METAR: EGVA 211856Z AUTO 22014G21KT 9999 BKN013 BKN019 OVC025 13/11 A2968 RMK AO2 CIG 013V025 SLP054 T01300107 $

Heure: 19:16 (19:16 UTC)


TAF: absent

Observations et prévisions météorologiques de plus de 4000 aéroports (messages METAR et TAF).

Les stations disponibles sont représentées par des disques jaunes et rouges sur la carte.

Passer la souris dessus pour voir le nom de la station.

Cliquer dessus pour voir les observations et prévisions météorologiques.

Pour changer de carte: cliquez sur les boutons verts avec une croix noire pour zoomer, sur le bouton vert avec un tiret pour effectuer un zoom arrière, ou sur les flèches vertes pour les cartes adjacentes.


METAR-TAF: